sensor_id;sensor_type;location;lat;lon;timestamp;temperature;humidity
1221;DHT22;600;48.044;7.878;2022-07-22T00:02:18;23.80;99.90
1221;DHT22;600;48.044;7.878;2022-07-22T00:04:45;23.80;99.90
1221;DHT22;600;48.044;7.878;2022-07-22T00:07:11;23.80;99.90
1221;DHT22;600;48.044;7.878;2022-07-22T00:09:39;23.70;99.90
1221;DHT22;600;48.044;7.878;2022-07-22T00:12:05;23.60;99.90
1221;DHT22;600;48.044;7.878;2022-07-22T00:14:33;23.60;99.90
1221;DHT22;600;48.044;7.878;2022-07-22T00:17:00;23.60;99.90
1221;DHT22;600;48.044;7.878;2022-07-22T00:19:26;23.60;99.90
1221;DHT22;600;48.044;7.878;2022-07-22T00:21:53;23.60;99.90
1221;DHT22;600;48.044;7.878;2022-07-22T00:24:19;23.60;99.90
1221;DHT22;600;48.044;7.878;2022-07-22T00:26:46;23.60;99.90
1221;DHT22;600;48.044;7.878;2022-07-22T00:29:12;23.50;99.90
1221;DHT22;600;48.044;7.878;2022-07-22T00:31:40;23.50;99.90
1221;DHT22;600;48.044;7.878;2022-07-22T00:34:07;23.40;99.90
1221;DHT22;600;48.044;7.878;2022-07-22T00:36:33;23.40;99.90
1221;DHT22;600;48.044;7.878;2022-07-22T00:39:00;23.40;99.90
1221;DHT22;600;48.044;7.878;2022-07-22T00:41:27;23.40;99.90
1221;DHT22;600;48.044;7.878;2022-07-22T00:43:54;23.30;99.90
1221;DHT22;600;48.044;7.878;2022-07-22T00:46:21;23.30;99.90
1221;DHT22;600;48.044;7.878;2022-07-22T00:48:49;23.20;99.90
1221;DHT22;600;48.044;7.878;2022-07-22T00:51:15;23.20;99.90
1221;DHT22;600;48.044;7.878;2022-07-22T00:53:42;23.20;99.90
1221;DHT22;600;48.044;7.878;2022-07-22T00:56:09;23.10;99.90
1221;DHT22;600;48.044;7.878;2022-07-22T00:58:35;23.10;99.90
1221;DHT22;600;48.044;7.878;2022-07-22T01:01:02;23.10;99.90
1221;DHT22;600;48.044;7.878;2022-07-22T01:03:29;23.10;99.90
1221;DHT22;600;48.044;7.878;2022-07-22T01:05:57;23.10;99.90
1221;DHT22;600;48.044;7.878;2022-07-22T01:08:24;23.10;99.90
1221;DHT22;600;48.044;7.878;2022-07-22T01:10:50;23.10;99.90
1221;DHT22;600;48.044;7.878;2022-07-22T01:13:17;23.00;99.90
1221;DHT22;600;48.044;7.878;2022-07-22T01:15:44;23.00;99.90
1221;DHT22;600;48.044;7.878;2022-07-22T01:18:10;23.00;99.90
1221;DHT22;600;48.044;7.878;2022-07-22T01:20:38;23.00;99.90
1221;DHT22;600;48.044;7.878;2022-07-22T01:23:05;23.00;99.90
1221;DHT22;600;48.044;7.878;2022-07-22T01:25:31;23.00;99.90
1221;DHT22;600;48.044;7.878;2022-07-22T01:27:58;23.00;99.90
1221;DHT22;600;48.044;7.878;2022-07-22T01:30:24;23.00;99.90
1221;DHT22;600;48.044;7.878;2022-07-22T01:32:51;23.00;99.90
1221;DHT22;600;48.044;7.878;2022-07-22T01:35:18;22.90;99.90
1221;DHT22;600;48.044;7.878;2022-07-22T01:37:46;22.90;99.90
1221;DHT22;600;48.044;7.878;2022-07-22T01:40:12;22.80;99.90
1221;DHT22;600;48.044;7.878;2022-07-22T01:42:39;22.80;99.90
1221;DHT22;600;48.044;7.878;2022-07-22T01:45:06;22.80;99.90
1221;DHT22;600;48.044;7.878;2022-07-22T01:49:59;22.70;99.90
1221;DHT22;600;48.044;7.878;2022-07-22T01:52:26;22.80;99.90
1221;DHT22;600;48.044;7.878;2022-07-22T01:54:54;22.70;99.90
1221;DHT22;600;48.044;7.878;2022-07-22T01:57:20;22.70;99.90
1221;DHT22;600;48.044;7.878;2022-07-22T02:02:13;22.60;99.90
1221;DHT22;600;48.044;7.878;2022-07-22T02:04:40;22.60;99.90
1221;DHT22;600;48.044;7.878;2022-07-22T02:09:33;22.60;99.90
1221;DHT22;600;48.044;7.878;2022-07-22T02:11:59;22.60;99.90
1221;DHT22;600;48.044;7.878;2022-07-22T02:14:26;22.60;99.90
1221;DHT22;600;48.044;7.878;2022-07-22T02:16:53;22.50;99.90
1221;DHT22;600;48.044;7.878;2022-07-22T02:24:14;22.40;99.90
1221;DHT22;600;48.044;7.878;2022-07-22T02:26:42;22.50;99.90
1221;DHT22;600;48.044;7.878;2022-07-22T02:29:08;22.30;99.90
1221;DHT22;600;48.044;7.878;2022-07-22T02:31:35;22.30;99.90
1221;DHT22;600;48.044;7.878;2022-07-22T02:34:01;22.30;99.90
1221;DHT22;600;48.044;7.878;2022-07-22T02:36:28;22.30;99.90
1221;DHT22;600;48.044;7.878;2022-07-22T02:38:54;22.20;99.90
1221;DHT22;600;48.044;7.878;2022-07-22T02:41:21;22.20;99.90
1221;DHT22;600;48.044;7.878;2022-07-22T02:43:49;22.20;99.90
1221;DHT22;600;48.044;7.878;2022-07-22T02:46:19;22.20;99.90
1221;DHT22;600;48.044;7.878;2022-07-22T02:48:45;22.20;99.90
1221;DHT22;600;48.044;7.878;2022-07-22T02:51:12;22.10;99.90
1221;DHT22;600;48.044;7.878;2022-07-22T02:53:38;22.10;99.90
1221;DHT22;600;48.044;7.878;2022-07-22T02:56:05;22.00;99.90
1221;DHT22;600;48.044;7.878;2022-07-22T02:58:31;22.10;99.90
1221;DHT22;600;48.044;7.878;2022-07-22T03:00:59;22.00;99.90
1221;DHT22;600;48.044;7.878;2022-07-22T03:03:26;22.00;99.90
1221;DHT22;600;48.044;7.878;2022-07-22T03:05:52;22.00;99.90
1221;DHT22;600;48.044;7.878;2022-07-22T03:08:19;22.00;99.90
1221;DHT22;600;48.044;7.878;2022-07-22T03:10:45;22.00;99.90
1221;DHT22;600;48.044;7.878;2022-07-22T03:13:12;22.00;99.90
1221;DHT22;600;48.044;7.878;2022-07-22T03:15:39;22.00;99.90
1221;DHT22;600;48.044;7.878;2022-07-22T03:18:06;22.00;99.90
1221;DHT22;600;48.044;7.878;2022-07-22T03:20:33;21.90;99.90
1221;DHT22;600;48.044;7.878;2022-07-22T03:23:00;22.00;99.90
1221;DHT22;600;48.044;7.878;2022-07-22T03:25:26;22.00;99.90
1221;DHT22;600;48.044;7.878;2022-07-22T03:27:53;22.00;99.90
1221;DHT22;600;48.044;7.878;2022-07-22T03:30:19;22.00;99.90
1221;DHT22;600;48.044;7.878;2022-07-22T03:32:46;21.90;99.90
1221;DHT22;600;48.044;7.878;2022-07-22T03:35:14;21.90;99.90
1221;DHT22;600;48.044;7.878;2022-07-22T03:37:40;21.80;99.90
1221;DHT22;600;48.044;7.878;2022-07-22T03:40:08;21.90;99.90
1221;DHT22;600;48.044;7.878;2022-07-22T03:42:34;21.80;99.90
1221;DHT22;600;48.044;7.878;2022-07-22T03:45:01;21.80;99.90
1221;DHT22;600;48.044;7.878;2022-07-22T03:47:28;21.80;99.90
1221;DHT22;600;48.044;7.878;2022-07-22T03:49:54;21.80;99.90
1221;DHT22;600;48.044;7.878;2022-07-22T03:52:23;21.80;99.90
1221;DHT22;600;48.044;7.878;2022-07-22T03:54:50;21.80;99.90
1221;DHT22;600;48.044;7.878;2022-07-22T03:57:16;21.70;99.90
1221;DHT22;600;48.044;7.878;2022-07-22T03:59:43;21.70;99.90
1221;DHT22;600;48.044;7.878;2022-07-22T04:02:10;21.60;99.90
1221;DHT22;600;48.044;7.878;2022-07-22T04:04:36;21.60;99.90
1221;DHT22;600;48.044;7.878;2022-07-22T04:07:03;21.60;99.90
1221;DHT22;600;48.044;7.878;2022-07-22T04:09:31;21.50;99.90
1221;DHT22;600;48.044;7.878;2022-07-22T04:11:57;21.50;99.90
1221;DHT22;600;48.044;7.878;2022-07-22T04:14:24;21.50;99.90
1221;DHT22;600;48.044;7.878;2022-07-22T04:16:51;21.50;99.90
1221;DHT22;600;48.044;7.878;2022-07-22T04:19:17;21.50;99.90
1221;DHT22;600;48.044;7.878;2022-07-22T04:21:44;21.50;99.90
1221;DHT22;600;48.044;7.878;2022-07-22T04:24:10;21.50;99.90
1221;DHT22;600;48.044;7.878;2022-07-22T04:26:38;21.50;99.90
1221;DHT22;600;48.044;7.878;2022-07-22T04:29:05;21.50;99.90
1221;DHT22;600;48.044;7.878;2022-07-22T04:31:31;21.50;99.90
1221;DHT22;600;48.044;7.878;2022-07-22T04:33:58;21.50;99.90
1221;DHT22;600;48.044;7.878;2022-07-22T04:39:27;21.50;99.90
1221;DHT22;600;48.044;7.878;2022-07-22T04:41:56;21.40;99.90
1221;DHT22;600;48.044;7.878;2022-07-22T04:44:22;21.40;99.90
1221;DHT22;600;48.044;7.878;2022-07-22T04:49:52;21.40;99.90
1221;DHT22;600;48.044;7.878;2022-07-22T04:52:18;21.40;99.90
1221;DHT22;600;48.044;7.878;2022-07-22T04:54:45;21.40;99.90
1221;DHT22;600;48.044;7.878;2022-07-22T04:57:13;21.40;99.90
1221;DHT22;600;48.044;7.878;2022-07-22T04:59:39;21.40;99.90
1221;DHT22;600;48.044;7.878;2022-07-22T05:02:06;21.40;99.90
1221;DHT22;600;48.044;7.878;2022-07-22T05:04:32;21.40;99.90
1221;DHT22;600;48.044;7.878;2022-07-22T05:06:59;21.40;99.90
1221;DHT22;600;48.044;7.878;2022-07-22T05:09:26;21.30;99.90
1221;DHT22;600;48.044;7.878;2022-07-22T05:11:52;21.40;99.90
1221;DHT22;600;48.044;7.878;2022-07-22T05:14:20;21.40;99.90
1221;DHT22;600;48.044;7.878;2022-07-22T05:16:47;21.40;99.90
1221;DHT22;600;48.044;7.878;2022-07-22T05:19:13;21.40;99.90
1221;DHT22;600;48.044;7.878;2022-07-22T05:21:40;21.40;99.90
1221;DHT22;600;48.044;7.878;2022-07-22T05:24:06;21.40;99.90
1221;DHT22;600;48.044;7.878;2022-07-22T05:26:33;21.40;99.90
1221;DHT22;600;48.044;7.878;2022-07-22T05:29:00;21.40;99.90
1221;DHT22;600;48.044;7.878;2022-07-22T05:31:28;21.50;99.90
1221;DHT22;600;48.044;7.878;2022-07-22T05:33:54;21.40;99.90
1221;DHT22;600;48.044;7.878;2022-07-22T05:36:21;21.40;99.90
1221;DHT22;600;48.044;7.878;2022-07-22T05:38:53;21.50;99.90
1221;DHT22;600;48.044;7.878;2022-07-22T05:41:20;21.50;99.90
1221;DHT22;600;48.044;7.878;2022-07-22T05:43:46;21.60;99.90
1221;DHT22;600;48.044;7.878;2022-07-22T05:46:13;21.70;99.90
1221;DHT22;600;48.044;7.878;2022-07-22T05:48:41;21.70;99.90
1221;DHT22;600;48.044;7.878;2022-07-22T05:51:10;21.80;99.90
1221;DHT22;600;48.044;7.878;2022-07-22T05:53:37;21.80;99.90
1221;DHT22;600;48.044;7.878;2022-07-22T05:56:03;21.80;99.90
1221;DHT22;600;48.044;7.878;2022-07-22T05:58:30;21.90;99.90
1221;DHT22;600;48.044;7.878;2022-07-22T06:00:57;21.90;99.90
1221;DHT22;600;48.044;7.878;2022-07-22T06:03:23;22.00;99.90
1221;DHT22;600;48.044;7.878;2022-07-22T06:05:51;22.00;99.90
1221;DHT22;600;48.044;7.878;2022-07-22T06:08:18;22.10;99.90
1221;DHT22;600;48.044;7.878;2022-07-22T06:10:44;22.10;99.90
1221;DHT22;600;48.044;7.878;2022-07-22T06:13:11;22.10;99.90
1221;DHT22;600;48.044;7.878;2022-07-22T06:15:38;22.10;99.90
1221;DHT22;600;48.044;7.878;2022-07-22T06:18:04;22.10;99.90
1221;DHT22;600;48.044;7.878;2022-07-22T06:20:31;22.20;99.90
1221;DHT22;600;48.044;7.878;2022-07-22T06:22:59;22.20;99.90
1221;DHT22;600;48.044;7.878;2022-07-22T06:25:26;22.20;99.90
1221;DHT22;600;48.044;7.878;2022-07-22T06:27:53;22.30;99.90
1221;DHT22;600;48.044;7.878;2022-07-22T06:30:19;22.30;99.90
1221;DHT22;600;48.044;7.878;2022-07-22T06:32:46;22.30;99.90
1221;DHT22;600;48.044;7.878;2022-07-22T06:35:13;22.40;99.90
1221;DHT22;600;48.044;7.878;2022-07-22T06:37:39;22.40;99.90
1221;DHT22;600;48.044;7.878;2022-07-22T06:40:08;22.40;99.90
1221;DHT22;600;48.044;7.878;2022-07-22T06:42:35;22.40;99.90
1221;DHT22;600;48.044;7.878;2022-07-22T06:45:01;22.40;99.90
1221;DHT22;600;48.044;7.878;2022-07-22T06:47:28;22.40;99.90
1221;DHT22;600;48.044;7.878;2022-07-22T06:49:55;22.50;99.90
1221;DHT22;600;48.044;7.878;2022-07-22T06:52:22;22.50;99.90
1221;DHT22;600;48.044;7.878;2022-07-22T06:54:49;22.50;99.90
1221;DHT22;600;48.044;7.878;2022-07-22T06:57:17;22.50;99.90
1221;DHT22;600;48.044;7.878;2022-07-22T06:59:43;22.50;99.90
1221;DHT22;600;48.044;7.878;2022-07-22T07:02:10;22.60;99.90
1221;DHT22;600;48.044;7.878;2022-07-22T07:04:36;22.60;99.90
1221;DHT22;600;48.044;7.878;2022-07-22T07:07:03;22.60;99.90
1221;DHT22;600;48.044;7.878;2022-07-22T07:09:29;22.70;99.90
1221;DHT22;600;48.044;7.878;2022-07-22T07:11:56;22.70;99.90
1221;DHT22;600;48.044;7.878;2022-07-22T07:14:24;22.80;99.90
1221;DHT22;600;48.044;7.878;2022-07-22T07:16:51;22.70;99.90
1221;DHT22;600;48.044;7.878;2022-07-22T07:19:17;22.80;99.90
1221;DHT22;600;48.044;7.878;2022-07-22T07:21:45;22.80;99.90
1221;DHT22;600;48.044;7.878;2022-07-22T07:24:11;22.80;99.90
1221;DHT22;600;48.044;7.878;2022-07-22T07:26:38;22.80;99.90
1221;DHT22;600;48.044;7.878;2022-07-22T07:29:04;22.90;99.90
1221;DHT22;600;48.044;7.878;2022-07-22T07:31:32;22.80;99.90
1221;DHT22;600;48.044;7.878;2022-07-22T07:33:59;22.90;99.90
1221;DHT22;600;48.044;7.878;2022-07-22T07:36:26;23.00;99.90
1221;DHT22;600;48.044;7.878;2022-07-22T07:38:52;23.00;99.90
1221;DHT22;600;48.044;7.878;2022-07-22T07:41:19;23.00;99.90
1221;DHT22;600;48.044;7.878;2022-07-22T07:43:45;23.10;99.90
1221;DHT22;600;48.044;7.878;2022-07-22T07:46:12;23.10;99.90
1221;DHT22;600;48.044;7.878;2022-07-22T07:48:40;23.10;99.90
1221;DHT22;600;48.044;7.878;2022-07-22T07:51:06;23.20;99.90
1221;DHT22;600;48.044;7.878;2022-07-22T07:53:33;23.20;99.90
1221;DHT22;600;48.044;7.878;2022-07-22T07:56:00;23.20;99.90
1221;DHT22;600;48.044;7.878;2022-07-22T07:58:26;23.30;99.90
1221;DHT22;600;48.044;7.878;2022-07-22T08:00:53;23.30;99.90
1221;DHT22;600;48.044;7.878;2022-07-22T08:03:19;23.30;99.90
1221;DHT22;600;48.044;7.878;2022-07-22T08:05:47;23.40;99.90
1221;DHT22;600;48.044;7.878;2022-07-22T08:08:14;23.40;99.90
1221;DHT22;600;48.044;7.878;2022-07-22T08:10:41;23.40;99.90
1221;DHT22;600;48.044;7.878;2022-07-22T08:13:07;23.50;99.90
1221;DHT22;600;48.044;7.878;2022-07-22T08:15:34;23.50;99.90
1221;DHT22;600;48.044;7.878;2022-07-22T08:18:01;23.50;99.90
1221;DHT22;600;48.044;7.878;2022-07-22T08:20:27;23.50;99.90
1221;DHT22;600;48.044;7.878;2022-07-22T08:22:56;23.60;99.90
1221;DHT22;600;48.044;7.878;2022-07-22T08:25:22;23.60;99.90
1221;DHT22;600;48.044;7.878;2022-07-22T08:27:49;23.60;99.90
1221;DHT22;600;48.044;7.878;2022-07-22T08:30:15;23.70;99.90
1221;DHT22;600;48.044;7.878;2022-07-22T08:32:42;23.70;99.90
1221;DHT22;600;48.044;7.878;2022-07-22T08:35:09;23.70;99.90
1221;DHT22;600;48.044;7.878;2022-07-22T08:37:36;23.80;99.90
1221;DHT22;600;48.044;7.878;2022-07-22T08:40:06;23.80;99.90
1221;DHT22;600;48.044;7.878;2022-07-22T08:42:32;23.90;99.90
1221;DHT22;600;48.044;7.878;2022-07-22T08:45:02;23.90;99.90
1221;DHT22;600;48.044;7.878;2022-07-22T08:47:29;24.00;99.90
1221;DHT22;600;48.044;7.878;2022-07-22T08:49:56;24.00;99.90
1221;DHT22;600;48.044;7.878;2022-07-22T08:52:23;24.00;99.90
1221;DHT22;600;48.044;7.878;2022-07-22T08:54:49;24.10;99.90
1221;DHT22;600;48.044;7.878;2022-07-22T08:57:18;24.10;99.90
1221;DHT22;600;48.044;7.878;2022-07-22T08:59:48;24.20;99.90
1221;DHT22;600;48.044;7.878;2022-07-22T09:02:15;24.20;99.90
1221;DHT22;600;48.044;7.878;2022-07-22T09:04:49;24.20;99.90
1221;DHT22;600;48.044;7.878;2022-07-22T09:07:22;24.30;99.90
1221;DHT22;600;48.044;7.878;2022-07-22T09:09:49;24.30;99.90
1221;DHT22;600;48.044;7.878;2022-07-22T09:12:17;24.30;99.90
1221;DHT22;600;48.044;7.878;2022-07-22T09:14:45;24.30;99.90
1221;DHT22;600;48.044;7.878;2022-07-22T09:17:27;24.40;99.90
1221;DHT22;600;48.044;7.878;2022-07-22T09:19:54;24.40;99.90
1221;DHT22;600;48.044;7.878;2022-07-22T09:22:32;24.40;99.90
1221;DHT22;600;48.044;7.878;2022-07-22T09:25:17;24.50;99.90
1221;DHT22;600;48.044;7.878;2022-07-22T09:27:46;24.50;99.90
1221;DHT22;600;48.044;7.878;2022-07-22T09:30:14;24.50;99.90
1221;DHT22;600;48.044;7.878;2022-07-22T09:32:42;24.60;99.90
1221;DHT22;600;48.044;7.878;2022-07-22T09:35:09;24.60;99.90
1221;DHT22;600;48.044;7.878;2022-07-22T09:37:36;24.60;99.90
1221;DHT22;600;48.044;7.878;2022-07-22T09:40:13;24.70;99.90
1221;DHT22;600;48.044;7.878;2022-07-22T09:42:47;24.80;99.90
1221;DHT22;600;48.044;7.878;2022-07-22T09:45:14;24.80;99.90
1221;DHT22;600;48.044;7.878;2022-07-22T09:47:42;24.90;99.90
1221;DHT22;600;48.044;7.878;2022-07-22T09:50:20;24.90;99.90
1221;DHT22;600;48.044;7.878;2022-07-22T09:52:48;25.00;99.90
1221;DHT22;600;48.044;7.878;2022-07-22T09:55:17;25.00;99.90
1221;DHT22;600;48.044;7.878;2022-07-22T09:57:46;25.10;99.90
1221;DHT22;600;48.044;7.878;2022-07-22T10:00:15;25.20;99.90
1221;DHT22;600;48.044;7.878;2022-07-22T10:02:46;25.20;99.90
1221;DHT22;600;48.044;7.878;2022-07-22T10:05:14;25.30;99.90
1221;DHT22;600;48.044;7.878;2022-07-22T10:07:42;25.30;99.90
1221;DHT22;600;48.044;7.878;2022-07-22T10:10:14;25.40;99.90
1221;DHT22;600;48.044;7.878;2022-07-22T10:12:42;25.50;99.90
1221;DHT22;600;48.044;7.878;2022-07-22T10:15:11;25.50;99.90
1221;DHT22;600;48.044;7.878;2022-07-22T10:17:41;25.60;99.90
1221;DHT22;600;48.044;7.878;2022-07-22T10:20:10;25.60;99.90
1221;DHT22;600;48.044;7.878;2022-07-22T10:22:49;25.60;99.90
1221;DHT22;600;48.044;7.878;2022-07-22T10:25:16;25.70;99.90
1221;DHT22;600;48.044;7.878;2022-07-22T10:27:46;25.80;99.90
1221;DHT22;600;48.044;7.878;2022-07-22T10:30:15;25.90;99.90
1221;DHT22;600;48.044;7.878;2022-07-22T10:32:42;25.90;99.90
1221;DHT22;600;48.044;7.878;2022-07-22T10:35:25;26.00;99.90
1221;DHT22;600;48.044;7.878;2022-07-22T10:37:55;26.10;99.90
1221;DHT22;600;48.044;7.878;2022-07-22T10:40:23;26.10;99.90
1221;DHT22;600;48.044;7.878;2022-07-22T10:43:09;26.10;99.90
1221;DHT22;600;48.044;7.878;2022-07-22T10:45:40;26.20;99.90
1221;DHT22;600;48.044;7.878;2022-07-22T10:48:10;26.30;99.90
1221;DHT22;600;48.044;7.878;2022-07-22T10:50:51;26.30;99.90
1221;DHT22;600;48.044;7.878;2022-07-22T10:53:22;26.30;99.90
1221;DHT22;600;48.044;7.878;2022-07-22T10:56:04;26.40;99.90
1221;DHT22;600;48.044;7.878;2022-07-22T10:58:43;26.50;99.90
1221;DHT22;600;48.044;7.878;2022-07-22T11:01:13;26.50;99.90
1221;DHT22;600;48.044;7.878;2022-07-22T11:03:42;26.60;99.90
1221;DHT22;600;48.044;7.878;2022-07-22T11:06:17;26.70;99.90
1221;DHT22;600;48.044;7.878;2022-07-22T11:08:47;26.70;99.90
1221;DHT22;600;48.044;7.878;2022-07-22T11:11:14;26.80;99.90
1221;DHT22;600;48.044;7.878;2022-07-22T11:13:42;26.90;99.90
1221;DHT22;600;48.044;7.878;2022-07-22T11:16:17;26.90;99.90
1221;DHT22;600;48.044;7.878;2022-07-22T11:18:48;26.90;99.90
1221;DHT22;600;48.044;7.878;2022-07-22T11:21:16;27.00;99.90
1221;DHT22;600;48.044;7.878;2022-07-22T11:23:44;27.10;99.90
1221;DHT22;600;48.044;7.878;2022-07-22T11:26:14;27.10;99.90
1221;DHT22;600;48.044;7.878;2022-07-22T11:28:41;27.30;99.90
1221;DHT22;600;48.044;7.878;2022-07-22T11:31:09;27.30;99.90
1221;DHT22;600;48.044;7.878;2022-07-22T11:33:37;27.40;99.90
1221;DHT22;600;48.044;7.878;2022-07-22T11:36:05;27.50;99.90
1221;DHT22;600;48.044;7.878;2022-07-22T11:38:42;27.60;99.90
1221;DHT22;600;48.044;7.878;2022-07-22T11:41:10;27.60;99.90
1221;DHT22;600;48.044;7.878;2022-07-22T11:43:42;27.70;99.90
1221;DHT22;600;48.044;7.878;2022-07-22T11:46:09;27.80;99.90
1221;DHT22;600;48.044;7.878;2022-07-22T11:48:39;27.90;99.90
1221;DHT22;600;48.044;7.878;2022-07-22T11:51:06;27.90;99.90
1221;DHT22;600;48.044;7.878;2022-07-22T11:53:35;28.00;99.90
1221;DHT22;600;48.044;7.878;2022-07-22T11:56:04;28.00;99.90
1221;DHT22;600;48.044;7.878;2022-07-22T11:58:42;28.10;99.90
1221;DHT22;600;48.044;7.878;2022-07-22T12:01:10;28.20;99.90
1221;DHT22;600;48.044;7.878;2022-07-22T12:03:37;28.30;99.90
1221;DHT22;600;48.044;7.878;2022-07-22T12:06:06;28.40;99.90
1221;DHT22;600;48.044;7.878;2022-07-22T12:08:33;28.50;99.90
1221;DHT22;600;48.044;7.878;2022-07-22T12:11:01;28.60;99.90
1221;DHT22;600;48.044;7.878;2022-07-22T12:13:28;28.60;99.90
1221;DHT22;600;48.044;7.878;2022-07-22T12:15:55;28.70;99.90
1221;DHT22;600;48.044;7.878;2022-07-22T12:18:23;28.70;99.90
1221;DHT22;600;48.044;7.878;2022-07-22T12:20:53;28.80;99.90
1221;DHT22;600;48.044;7.878;2022-07-22T12:23:21;28.90;99.90
1221;DHT22;600;48.044;7.878;2022-07-22T12:25:51;29.00;99.90
1221;DHT22;600;48.044;7.878;2022-07-22T12:28:18;29.10;99.90
1221;DHT22;600;48.044;7.878;2022-07-22T12:30:45;29.20;99.90
1221;DHT22;600;48.044;7.878;2022-07-22T12:33:15;29.30;99.90
1221;DHT22;600;48.044;7.878;2022-07-22T12:35:42;29.40;99.90
1221;DHT22;600;48.044;7.878;2022-07-22T12:38:10;29.50;99.90
1221;DHT22;600;48.044;7.878;2022-07-22T12:40:40;29.60;99.90
1221;DHT22;600;48.044;7.878;2022-07-22T12:43:10;29.60;99.90
1221;DHT22;600;48.044;7.878;2022-07-22T12:45:38;29.70;99.90
1221;DHT22;600;48.044;7.878;2022-07-22T12:48:07;29.90;99.90
1221;DHT22;600;48.044;7.878;2022-07-22T12:50:36;29.90;99.90
1221;DHT22;600;48.044;7.878;2022-07-22T12:53:04;30.00;99.90
1221;DHT22;600;48.044;7.878;2022-07-22T12:55:33;30.10;99.90
1221;DHT22;600;48.044;7.878;2022-07-22T12:58:03;30.20;99.90
1221;DHT22;600;48.044;7.878;2022-07-22T13:00:32;30.20;99.70
1221;DHT22;600;48.044;7.878;2022-07-22T13:02:59;30.30;99.50
1221;DHT22;600;48.044;7.878;2022-07-22T13:05:26;30.30;99.60
1221;DHT22;600;48.044;7.878;2022-07-22T13:07:53;30.40;99.50
1221;DHT22;600;48.044;7.878;2022-07-22T13:10:22;30.40;99.20
1221;DHT22;600;48.044;7.878;2022-07-22T13:12:49;30.50;98.50
1221;DHT22;600;48.044;7.878;2022-07-22T13:15:18;30.60;97.70
1221;DHT22;600;48.044;7.878;2022-07-22T13:17:45;30.60;98.30
1221;DHT22;600;48.044;7.878;2022-07-22T13:20:13;30.70;98.00
1221;DHT22;600;48.044;7.878;2022-07-22T13:22:41;30.80;98.10
1221;DHT22;600;48.044;7.878;2022-07-22T13:25:08;30.90;97.50
1221;DHT22;600;48.044;7.878;2022-07-22T13:27:35;31.00;97.10
1221;DHT22;600;48.044;7.878;2022-07-22T13:30:03;31.10;96.80
1221;DHT22;600;48.044;7.878;2022-07-22T13:32:31;31.20;97.20
1221;DHT22;600;48.044;7.878;2022-07-22T13:34:58;31.20;96.70
1221;DHT22;600;48.044;7.878;2022-07-22T13:37:25;31.30;97.10
1221;DHT22;600;48.044;7.878;2022-07-22T13:39:52;31.40;96.30
1221;DHT22;600;48.044;7.878;2022-07-22T13:42:19;31.40;96.00
1221;DHT22;600;48.044;7.878;2022-07-22T13:44:46;31.40;94.90
1221;DHT22;600;48.044;7.878;2022-07-22T13:47:13;31.40;95.10
1221;DHT22;600;48.044;7.878;2022-07-22T13:49:42;31.50;94.70
1221;DHT22;600;48.044;7.878;2022-07-22T13:52:10;31.60;94.30
1221;DHT22;600;48.044;7.878;2022-07-22T13:54:36;31.60;94.00
1221;DHT22;600;48.044;7.878;2022-07-22T13:57:04;31.70;94.70
1221;DHT22;600;48.044;7.878;2022-07-22T13:59:31;31.80;95.30
1221;DHT22;600;48.044;7.878;2022-07-22T14:01:58;31.90;95.60
1221;DHT22;600;48.044;7.878;2022-07-22T14:04:25;32.00;95.20
1221;DHT22;600;48.044;7.878;2022-07-22T14:06:54;32.10;94.90
1221;DHT22;600;48.044;7.878;2022-07-22T14:09:20;32.20;94.20
1221;DHT22;600;48.044;7.878;2022-07-22T14:11:47;32.30;93.90
1221;DHT22;600;48.044;7.878;2022-07-22T14:14:14;32.30;94.10
1221;DHT22;600;48.044;7.878;2022-07-22T14:16:41;32.40;93.70
1221;DHT22;600;48.044;7.878;2022-07-22T14:19:09;32.50;93.50
1221;DHT22;600;48.044;7.878;2022-07-22T14:21:37;32.50;92.30
1221;DHT22;600;48.044;7.878;2022-07-22T14:24:07;32.60;92.20
1221;DHT22;600;48.044;7.878;2022-07-22T14:26:35;32.70;92.40
1221;DHT22;600;48.044;7.878;2022-07-22T14:29:03;32.70;90.60
1221;DHT22;600;48.044;7.878;2022-07-22T14:31:30;32.80;89.00
1221;DHT22;600;48.044;7.878;2022-07-22T14:33:57;32.90;88.10
1221;DHT22;600;48.044;7.878;2022-07-22T14:36:23;32.90;89.10
1221;DHT22;600;48.044;7.878;2022-07-22T14:38:52;33.00;90.80
1221;DHT22;600;48.044;7.878;2022-07-22T14:44:45;33.20;87.50
1221;DHT22;600;48.044;7.878;2022-07-22T14:50:33;33.30;81.10
1221;DHT22;600;48.044;7.878;2022-07-22T14:53:00;33.30;74.50
1221;DHT22;600;48.044;7.878;2022-07-22T14:55:27;33.40;76.20
1221;DHT22;600;48.044;7.878;2022-07-22T14:57:54;33.50;73.50
1221;DHT22;600;48.044;7.878;2022-07-22T15:00:22;33.50;72.20
1221;DHT22;600;48.044;7.878;2022-07-22T15:02:59;33.60;73.10
1221;DHT22;600;48.044;7.878;2022-07-22T15:05:46;33.70;75.80
1221;DHT22;600;48.044;7.878;2022-07-22T15:08:13;33.70;74.30
1221;DHT22;600;48.044;7.878;2022-07-22T15:10:40;33.80;72.70
1221;DHT22;600;48.044;7.878;2022-07-22T15:13:07;33.90;75.40
1221;DHT22;600;48.044;7.878;2022-07-22T15:15:35;34.00;76.40
1221;DHT22;600;48.044;7.878;2022-07-22T15:18:02;34.00;77.10
1221;DHT22;600;48.044;7.878;2022-07-22T15:20:29;34.10;77.40
1221;DHT22;600;48.044;7.878;2022-07-22T15:22:56;34.20;76.00
1221;DHT22;600;48.044;7.878;2022-07-22T15:25:22;34.30;76.80
1221;DHT22;600;48.044;7.878;2022-07-22T15:27:49;34.40;77.30
1221;DHT22;600;48.044;7.878;2022-07-22T15:30:16;34.40;74.40
1221;DHT22;600;48.044;7.878;2022-07-22T15:32:51;34.60;73.50
1221;DHT22;600;48.044;7.878;2022-07-22T15:35:18;34.60;68.50
1221;DHT22;600;48.044;7.878;2022-07-22T15:37:45;34.80;68.50
1221;DHT22;600;48.044;7.878;2022-07-22T15:40:12;34.90;72.10
1221;DHT22;600;48.044;7.878;2022-07-22T15:42:39;35.00;69.80
1221;DHT22;600;48.044;7.878;2022-07-22T15:45:07;35.10;73.00
1221;DHT22;600;48.044;7.878;2022-07-22T15:47:34;35.30;68.20
1221;DHT22;600;48.044;7.878;2022-07-22T15:50:03;35.30;68.70
1221;DHT22;600;48.044;7.878;2022-07-22T15:52:29;35.30;65.90
1221;DHT22;600;48.044;7.878;2022-07-22T15:54:56;35.40;69.00
1221;DHT22;600;48.044;7.878;2022-07-22T15:57:23;35.40;69.60
1221;DHT22;600;48.044;7.878;2022-07-22T16:00:08;35.50;66.50
1221;DHT22;600;48.044;7.878;2022-07-22T16:02:35;35.50;61.80
1221;DHT22;600;48.044;7.878;2022-07-22T16:05:05;35.50;62.90
1221;DHT22;600;48.044;7.878;2022-07-22T16:07:31;35.50;62.80
1221;DHT22;600;48.044;7.878;2022-07-22T16:09:58;35.50;63.40
1221;DHT22;600;48.044;7.878;2022-07-22T16:12:25;35.50;66.30
1221;DHT22;600;48.044;7.878;2022-07-22T16:14:52;35.50;66.70
1221;DHT22;600;48.044;7.878;2022-07-22T16:17:19;35.50;65.60
1221;DHT22;600;48.044;7.878;2022-07-22T16:19:46;35.40;67.30
1221;DHT22;600;48.044;7.878;2022-07-22T16:22:14;35.40;68.60
1221;DHT22;600;48.044;7.878;2022-07-22T16:24:40;35.20;69.40
1221;DHT22;600;48.044;7.878;2022-07-22T16:27:07;35.00;68.40
1221;DHT22;600;48.044;7.878;2022-07-22T16:29:34;34.90;67.80
1221;DHT22;600;48.044;7.878;2022-07-22T16:32:07;34.80;69.30
1221;DHT22;600;48.044;7.878;2022-07-22T16:34:35;34.70;69.80
1221;DHT22;600;48.044;7.878;2022-07-22T16:37:02;34.60;70.40
1221;DHT22;600;48.044;7.878;2022-07-22T16:39:30;34.50;70.70
1221;DHT22;600;48.044;7.878;2022-07-22T16:41:58;34.40;68.00
1221;DHT22;600;48.044;7.878;2022-07-22T16:44:25;34.30;65.30
1221;DHT22;600;48.044;7.878;2022-07-22T16:46:52;34.10;65.30